Estación Meteorológica Peña el Pijo (Robertgarden) [ 12/09/19 17:18:59 CET ]

Fecha Hora Presion(HPa) Temp (°C) Humedad % Rocio (°C) Viento ( m/s) Direccion Lluvia 1Hora(mm) Lluvia 24H(mm) LLuvia Total(mm)
2019-Sep-24 01:01:42 1013.800 11.8 81 8.7         490.25
2019-Sep-24 02:01:53 1013.700 10.5 81 7.4         490.25
2019-Sep-24 03:01:43 1013.300 9.9 82 6.9         490.25
2019-Sep-24 04:01:46 1012.800 9.2 81 6.1         490.25
2019-Sep-24 05:04:17 1012.300 8.4 81 5.3         490.25
2019-Sep-24 06:01:46 1012.500 7.6 82 4.7         490.25
2019-Sep-24 07:02:02 1012.400 7.4 82 4.5         490.25
2019-Sep-24 08:01:37 1012.300 6.8 83 4.1         490.25
2019-Sep-24 09:01:41 1012.600 7.5 85 5.1         490.25
2019-Sep-24 10:01:39 1012.700 15.8 77 11.8         490.25
2019-Sep-24 11:02:02 1013.200 21.4 48 9.9         490.25
2019-Sep-24 12:01:56 1013.200 25.4 39 10.4 0.6 NNE     490.25
2019-Sep-24 13:01:46 1013.100 27.8 34 10.4         490.25
2019-Sep-24 14:01:48 1012.400 29.5 32 11.0 0.9 NW     490.25
2019-Sep-24 15:01:39 1011.600 30.3 27 9.0         490.25
2019-Sep-24 16:01:38 1011.200 31.6 26 9.5         490.25
2019-Sep-24 17:01:29 1010.600 31.1 26 9.1         490.25
2019-Sep-24 18:01:20 1010.400 29.8 27 8.0         490.25
2019-Sep-24 19:01:57 1010.200 26.9 28 6.8         490.25
2019-Sep-24 20:01:47 1010.700 22.1 42 8.5         490.25
2019-Sep-24 21:01:57 1011.100 17.1 57 8.5         490.25
2019-Sep-24 22:01:54 1011.800 14.6 65 8.1         490.25
2019-Sep-24 23:01:45 1012.000 14.4 64 7.6         490.25

Temperatura Máxima:31°    Temperatura Mínima:
Presión Máxima:1013.800 Hpa    Presión Mínima:1010.200 Hpa


Volver